Terminal Aerodrome Forecast
Issued by NWS

Home | Current Version | Previous Version | Text Only | Print | Product List | Glossary On
Versions: 1 2 3 4 5 6 7 8 9 10 11 12 13 14 15 16 17 18
000
FTUS46 KSTO 261731
TAFRDD
TAF
KRDD 261731Z 2618/2718 18011KT P6SM -RA BKN010 OVC040
     FM262200 18012G18KT 6SM -SHRA SCT030 OVC040
     FM270200 18006KT P6SM VCSH OVC015
     FM271200 20003KT P6SM BKN250=

USA.gov is the U.S. government's official web portal to all federal, state and local government web resources and services.